Time;durP1;ratioP1;P1;durP2;ratioP2;P2;SDS_P1;SDS_P2;PMS_P1;PMS_P2;Temp;Humidity;BMP_temperature;BMP_pressure;BME280_temperature;BME280_humidity;BME280_pressure;Samples;Min_cycle;Max_cycle;Signal;HPM_P1;HPM_P2
2021/05/27 00:01:38;;;;;;;13.63;7.00;;;12.80;99.90;;;;;;5071075;28;20260;-69
2021/05/27 00:04:05;;;;;;;12.18;6.85;;;12.70;99.90;;;;;;5071932;28;20214;-68
2021/05/27 00:06:31;;;;;;;8.52;5.80;;;12.80;99.90;;;;;;5074735;28;20217;-68
2021/05/27 00:08:58;;;;;;;10.02;5.78;;;12.70;99.90;;;;;;5074571;28;20247;-69
2021/05/27 00:11:25;;;;;;;14.13;6.68;;;12.70;99.90;;;;;;5074572;28;20206;-69
2021/05/27 00:13:51;;;;;;;9.02;6.03;;;12.80;99.90;;;;;;5074627;28;20218;-69
2021/05/27 00:16:18;;;;;;;7.45;5.38;;;12.90;99.90;;;;;;5074582;28;20197;-71
2021/05/27 00:18:45;;;;;;;13.98;6.93;;;12.80;99.90;;;;;;5074978;28;20202;-69
2021/05/27 00:21:11;;;;;;;11.13;6.75;;;12.70;99.90;;;;;;5074518;28;20244;-69
2021/05/27 00:23:37;;;;;;;10.73;5.55;;;12.60;99.90;;;;;;5074293;28;20198;-69
2021/05/27 00:26:05;;;;;;;8.88;6.70;;;12.60;99.90;;;;;;5073865;28;20267;-69
2021/05/27 00:28:31;;;;;;;15.50;7.60;;;12.50;99.90;;;;;;5074487;28;20255;-69
2021/05/27 00:30:58;;;;;;;16.65;7.55;;;12.50;99.90;;;;;;5074346;28;20202;-70
2021/05/27 00:33:24;;;;;;;12.00;6.72;;;12.50;99.90;;;;;;5074260;28;20210;-70
2021/05/27 00:35:51;;;;;;;14.23;6.93;;;12.60;99.90;;;;;;5074086;28;20230;-70
2021/05/27 00:38:17;;;;;;;12.48;6.60;;;12.60;99.90;;;;;;5074271;28;20202;-69
2021/05/27 00:40:44;;;;;;;10.25;5.25;;;12.50;99.90;;;;;;5074129;28;20585;-70
2021/05/27 00:43:11;;;;;;;12.52;6.70;;;12.60;99.90;;;;;;5074249;28;20232;-70
2021/05/27 00:45:38;;;;;;;13.57;6.90;;;12.50;99.90;;;;;;5074084;28;20206;-69
2021/05/27 00:48:05;;;;;;;15.63;6.85;;;12.60;99.90;;;;;;5073938;28;20221;-70
2021/05/27 00:50:31;;;;;;;11.40;6.80;;;12.60;99.90;;;;;;5073928;28;20202;-70
2021/05/27 00:52:58;;;;;;;14.00;7.28;;;12.60;99.90;;;;;;5073799;28;20248;-70
2021/05/27 00:55:26;;;;;;;13.50;7.07;;;12.50;99.90;;;;;;5073644;28;20709;-71
2021/05/27 00:57:54;;;;;;;9.90;6.93;;;12.50;99.90;;;;;;5074018;28;20641;-70
2021/05/27 01:00:25;;;;;;;15.25;6.80;;;12.40;99.90;;;;;;5074212;28;20205;-70
2021/05/27 01:02:52;;;;;;;10.30;6.17;;;12.30;99.90;;;;;;5073830;28;20198;-70
2021/05/27 01:05:19;;;;;;;13.20;6.65;;;12.30;99.90;;;;;;5073891;28;20206;-70
2021/05/27 01:07:46;;;;;;;12.60;6.93;;;12.20;99.90;;;;;;5073533;28;20224;-70
2021/05/27 01:10:14;;;;;;;9.53;7.20;;;12.30;99.90;;;;;;5073547;28;20547;-70
2021/05/27 01:12:40;;;;;;;13.50;6.57;;;12.30;99.90;;;;;;5073645;28;20218;-70
2021/05/27 01:15:29;;;;;;;13.43;6.80;;;12.30;99.90;;;;;;5072760;28;20291;-70
2021/05/27 01:17:56;;;;;;;11.15;6.53;;;12.30;99.90;;;;;;5073420;28;20645;-71
2021/05/27 01:20:23;;;;;;;11.60;6.53;;;12.20;99.90;;;;;;5073356;28;20206;-70
2021/05/27 01:22:51;;;;;;;12.60;6.13;;;12.20;99.90;;;;;;5073554;28;20685;-71
2021/05/27 01:25:18;;;;;;;14.98;7.60;;;12.20;99.90;;;;;;5073453;28;20206;-70
2021/05/27 01:27:44;;;;;;;10.67;7.53;;;12.10;99.90;;;;;;5073273;28;20213;-70
2021/05/27 01:30:12;;;;;;;15.43;7.53;;;12.00;99.90;;;;;;5073180;28;20202;-70
2021/05/27 01:32:39;;;;;;;16.40;7.23;;;12.00;99.90;;;;;;5072974;28;20198;-70
2021/05/27 01:35:12;;;;;;;14.87;7.23;;;12.00;99.90;;;;;;5073204;28;20242;-70
2021/05/27 01:37:39;;;;;;;11.50;5.83;;;12.00;99.90;;;;;;5072978;28;20207;-70
2021/05/27 01:40:08;;;;;;;11.93;6.90;;;12.00;99.90;;;;;;5072949;28;20213;-71
2021/05/27 01:42:34;;;;;;;10.07;7.10;;;12.00;99.90;;;;;;5072879;28;20206;-70
2021/05/27 01:45:01;;;;;;;12.20;7.37;;;12.00;99.90;;;;;;5072744;28;20202;-69
2021/05/27 01:47:27;;;;;;;11.83;6.27;;;12.00;99.90;;;;;;5072981;28;20198;-70
2021/05/27 01:49:54;;;;;;;12.70;6.27;;;12.10;99.90;;;;;;5072823;28;20255;-70
2021/05/27 01:52:20;;;;;;;15.23;6.53;;;12.00;99.90;;;;;;5073033;28;20206;-70
2021/05/27 01:54:47;;;;;;;9.10;6.30;;;12.00;99.90;;;;;;5072432;28;20283;-69
2021/05/27 01:57:14;;;;;;;15.60;6.90;;;11.90;99.90;;;;;;5072557;28;20773;-70
2021/05/27 01:59:40;;;;;;;9.13;5.07;;;11.90;99.90;;;;;;5072503;28;20202;-70
2021/05/27 02:02:07;;;;;;;13.20;6.23;;;11.80;99.90;;;;;;5072418;28;20209;-71
2021/05/27 02:04:33;;;;;;;13.77;7.17;;;11.80;99.90;;;;;;5072567;28;20201;-70
2021/05/27 02:07:08;;;;;;;12.10;6.93;;;11.80;99.90;;;;;;5072590;28;20202;-70
2021/05/27 02:09:35;;;;;;;8.40;5.73;;;11.80;99.90;;;;;;5072215;28;20594;-70
2021/05/27 02:12:01;;;;;;;13.50;5.87;;;11.80;99.90;;;;;;5072293;28;20210;-70
2021/05/27 02:14:28;;;;;;;9.40;5.83;;;11.70;99.90;;;;;;5072393;28;20229;-70
2021/05/27 02:16:55;;;;;;;9.70;6.70;;;11.70;99.90;;;;;;5072307;28;20617;-70
2021/05/27 02:19:21;;;;;;;13.70;6.33;;;11.70;99.90;;;;;;5072484;28;20209;-70
2021/05/27 02:21:48;;;;;;;13.60;6.97;;;11.70;99.90;;;;;;5072125;28;20202;-69
2021/05/27 02:24:14;;;;;;;8.67;6.50;;;11.70;99.90;;;;;;5071999;28;20221;-69
2021/05/27 02:26:41;;;;;;;14.10;6.40;;;11.70;99.90;;;;;;5071738;28;20221;-69
2021/05/27 02:29:08;;;;;;;8.87;6.27;;;11.70;99.90;;;;;;5071874;28;20206;-69
2021/05/27 02:31:35;;;;;;;16.37;5.73;;;11.60;99.90;;;;;;5072038;28;20207;-69
2021/05/27 02:34:02;;;;;;;8.17;5.60;;;11.60;99.90;;;;;;5071856;28;20205;-70
2021/05/27 02:36:29;;;;;;;14.90;6.87;;;11.60;99.90;;;;;;5071859;28;20212;-69
2021/05/27 02:38:56;;;;;;;16.90;6.87;;;11.60;99.90;;;;;;5071889;28;20209;-70
2021/05/27 02:41:23;;;;;;;9.30;6.13;;;11.60;99.90;;;;;;5071948;28;20606;-70
2021/05/27 02:43:50;;;;;;;9.53;5.83;;;11.60;99.90;;;;;;5072003;28;20612;-70
2021/05/27 02:46:17;;;;;;;7.33;5.80;;;11.60;99.90;;;;;;5072115;28;20296;-68
2021/05/27 02:48:44;;;;;;;7.40;5.90;;;11.60;99.90;;;;;;5071817;28;20319;-71
2021/05/27 02:51:10;;;;;;;7.17;5.67;;;11.60;99.90;;;;;;5071659;28;20665;-71
2021/05/27 02:53:37;;;;;;;8.60;5.13;;;11.60;99.90;;;;;;5071754;28;20206;-72
2021/05/27 02:56:04;;;;;;;11.40;6.33;;;11.50;99.90;;;;;;5071667;28;20238;-71
2021/05/27 02:58:30;;;;;;;8.67;5.27;;;11.50;99.90;;;;;;5071798;28;20228;-71
2021/05/27 03:00:57;;;;;;;10.20;6.13;;;11.50;99.90;;;;;;5071509;28;20681;-71
2021/05/27 03:03:23;;;;;;;17.47;6.90;;;11.40;99.90;;;;;;5071944;28;20205;-71
2021/05/27 03:05:51;;;;;;;10.97;6.63;;;11.40;99.90;;;;;;5071634;28;20213;-71
2021/05/27 03:08:18;;;;;;;13.60;6.30;;;11.40;99.90;;;;;;5071392;28;20213;-71
2021/05/27 03:10:45;;;;;;;9.73;6.33;;;11.40;99.90;;;;;;5071668;28;20206;-71
2021/05/27 03:13:11;;;;;;;8.87;4.77;;;11.20;99.90;;;;;;5071580;28;20202;-71
2021/05/27 03:15:38;;;;;;;16.37;6.17;;;11.20;99.90;;;;;;5071394;28;20233;-71
2021/05/27 03:18:07;;;;;;;12.97;5.73;;;11.30;99.90;;;;;;5071510;28;20256;-71
2021/05/27 03:20:35;;;;;;;12.43;6.70;;;11.30;99.90;;;;;;5071362;28;20206;-72
2021/05/27 03:23:03;;;;;;;18.97;8.43;;;11.30;99.90;;;;;;5071340;28;20202;-72
2021/05/27 03:25:29;;;;;;;9.97;5.17;;;11.20;99.90;;;;;;5071258;28;20615;-72
2021/05/27 03:27:56;;;;;;;8.73;5.47;;;11.10;99.90;;;;;;5071505;28;20588;-71
2021/05/27 03:30:23;;;;;;;10.80;5.63;;;11.00;99.90;;;;;;5071433;28;20206;-72
2021/05/27 03:32:49;;;;;;;13.70;6.63;;;10.90;99.90;;;;;;5071237;28;20198;-72
2021/05/27 03:35:16;;;;;;;12.63;6.30;;;10.80;99.90;;;;;;5071222;28;20238;-72
2021/05/27 03:37:43;;;;;;;11.70;5.80;;;10.80;99.90;;;;;;5071266;28;20202;-72
2021/05/27 03:40:12;;;;;;;9.33;5.47;;;10.90;99.90;;;;;;5073847;28;20213;-72
2021/05/27 03:42:44;;;;;;;16.40;6.77;;;11.00;99.90;;;;;;5075331;28;20202;-72
2021/05/27 03:45:12;;;;;;;10.37;6.50;;;11.00;99.90;;;;;;5075162;28;20209;-72
2021/05/27 03:47:40;;;;;;;11.97;6.07;;;11.00;99.90;;;;;;5075125;28;20206;-72
2021/05/27 03:50:08;;;;;;;12.57;5.47;;;10.90;99.90;;;;;;5074915;28;20207;-72
2021/05/27 03:52:35;;;;;;;14.27;7.87;;;10.90;99.90;;;;;;5074908;28;20572;-73
2021/05/27 03:55:01;;;;;;;6.93;5.30;;;10.90;99.90;;;;;;5075075;28;20240;-73
2021/05/27 03:57:28;;;;;;;10.30;5.67;;;11.00;99.90;;;;;;5075200;28;20202;-72
2021/05/27 04:02:43;;;;;;;6.60;5.33;;;11.10;99.90;;;;;;5074741;28;20312;-72
2021/05/27 04:07:55;;;;;;;9.93;7.00;;;11.00;99.90;;;;;;5074937;28;20209;-73
2021/05/27 04:10:22;;;;;;;13.53;5.87;;;10.90;99.90;;;;;;5074713;28;20206;-72
2021/05/27 04:12:50;;;;;;;7.63;5.30;;;10.80;99.90;;;;;;5074540;28;20198;-72
2021/05/27 04:15:22;;;;;;;6.57;4.33;;;10.90;99.90;;;;;;5074417;28;20245;-72
2021/05/27 04:17:53;;;;;;;10.53;6.33;;;11.00;99.90;;;;;;5074313;28;20239;-73
2021/05/27 04:20:20;;;;;;;15.20;6.30;;;11.00;99.90;;;;;;5074604;28;20206;-72
2021/05/27 04:22:48;;;;;;;13.27;5.50;;;10.90;99.90;;;;;;5074397;28;20236;-72
2021/05/27 04:25:16;;;;;;;9.43;5.17;;;10.90;99.90;;;;;;5074230;28;20279;-72
2021/05/27 04:27:43;;;;;;;8.47;6.03;;;11.00;99.90;;;;;;5074270;28;20198;-72
2021/05/27 04:30:15;;;;;;;10.53;5.40;;;11.00;99.90;;;;;;5074245;28;20210;-71
2021/05/27 04:32:54;;;;;;;13.30;4.90;;;11.10;99.90;;;;;;5074274;28;20230;-71
2021/05/27 04:35:22;;;;;;;12.20;5.27;;;11.10;99.90;;;;;;5074141;28;20316;-71
2021/05/27 04:37:49;;;;;;;9.37;4.63;;;11.10;99.90;;;;;;5074093;28;20209;-71
2021/05/27 04:40:15;;;;;;;14.83;5.90;;;11.20;99.90;;;;;;5074025;28;20267;-71
2021/05/27 04:42:42;;;;;;;8.60;5.03;;;11.20;99.90;;;;;;5074345;28;20209;-71
2021/05/27 04:45:11;;;;;;;13.70;5.27;;;11.10;99.90;;;;;;5074051;28;20202;-71
2021/05/27 04:47:38;;;;;;;7.60;5.70;;;11.20;99.90;;;;;;5074119;28;20206;-71
2021/05/27 04:50:06;;;;;;;15.00;5.27;;;11.20;99.90;;;;;;5073814;28;20203;-71
2021/05/27 04:52:33;;;;;;;11.57;5.20;;;11.30;99.90;;;;;;5073884;28;20206;-72
2021/05/27 04:55:00;;;;;;;11.90;5.53;;;11.20;99.90;;;;;;5074029;28;20705;-71
2021/05/27 04:57:27;;;;;;;11.80;5.90;;;11.10;99.90;;;;;;5073994;28;20206;-72
2021/05/27 04:59:53;;;;;;;9.57;5.77;;;11.30;99.90;;;;;;5073646;28;20237;-72
2021/05/27 05:02:21;;;;;;;11.13;4.90;;;11.20;99.90;;;;;;5073735;28;20662;-71
2021/05/27 05:04:47;;;;;;;10.80;4.93;;;11.30;99.90;;;;;;5073638;28;20206;-72
2021/05/27 05:07:14;;;;;;;7.87;5.17;;;11.40;99.90;;;;;;5073480;28;20206;-71
2021/05/27 05:09:40;;;;;;;8.83;5.63;;;11.30;99.90;;;;;;5073576;28;20231;-71
2021/05/27 05:12:08;;;;;;;13.00;6.27;;;11.30;99.90;;;;;;5073472;28;20581;-71
2021/05/27 05:14:34;;;;;;;9.37;5.17;;;11.40;99.90;;;;;;5073459;28;20222;-72
2021/05/27 05:17:01;;;;;;;9.30;5.00;;;11.50;99.90;;;;;;5073846;28;20206;-72
2021/05/27 05:19:28;;;;;;;11.23;6.13;;;11.50;99.90;;;;;;5073380;28;20202;-72
2021/05/27 05:21:57;;;;;;;10.47;6.97;;;11.60;99.90;;;;;;5073242;28;20206;-72
2021/05/27 05:24:23;;;;;;;11.37;6.27;;;11.70;99.90;;;;;;5073381;28;20210;-72
2021/05/27 05:26:50;;;;;;;10.70;6.57;;;11.80;99.90;;;;;;5073364;28;20202;-72
2021/05/27 05:29:17;;;;;;;16.00;7.40;;;11.90;99.90;;;;;;5073276;28;20229;-72
2021/05/27 05:31:43;;;;;;;18.10;7.60;;;12.00;99.90;;;;;;5073192;28;20202;-72
2021/05/27 05:34:10;;;;;;;15.77;7.60;;;12.10;99.90;;;;;;5073004;28;20198;-73
2021/05/27 05:36:37;;;;;;;15.00;6.17;;;12.10;99.90;;;;;;5073131;28;20238;-72
2021/05/27 05:39:05;;;;;;;14.00;6.03;;;12.10;99.90;;;;;;5073429;28;20252;-73
2021/05/27 05:41:31;;;;;;;15.03;6.43;;;12.10;99.90;;;;;;5073091;28;20206;-77
2021/05/27 05:43:59;;;;;;;11.27;5.27;;;12.10;99.90;;;;;;5064218;28;20209;-72
2021/05/27 05:46:25;;;;;;;10.33;4.60;;;12.10;99.90;;;;;;5066665;28;20246;-72
2021/05/27 05:48:52;;;;;;;13.63;6.50;;;12.20;99.90;;;;;;5057920;28;20225;-73
2021/05/27 05:51:18;;;;;;;12.73;5.20;;;12.40;99.90;;;;;;5060649;28;20237;-72
2021/05/27 05:53:45;;;;;;;19.40;5.87;;;12.50;99.90;;;;;;5066930;28;20207;-72
2021/05/27 05:56:12;;;;;;;11.90;5.60;;;12.70;99.90;;;;;;5052675;28;20238;-73
2021/05/27 05:58:38;;;;;;;13.83;5.40;;;12.70;99.90;;;;;;5052668;28;20205;-73
2021/05/27 06:01:05;;;;;;;10.93;6.10;;;12.70;99.90;;;;;;5052299;28;20576;-73
2021/05/27 06:03:33;;;;;;;12.00;7.23;;;12.80;99.90;;;;;;5066033;28;20217;-73
2021/05/27 06:06:00;;;;;;;11.40;6.70;;;12.80;99.90;;;;;;5072201;28;20666;-73
2021/05/27 06:08:27;;;;;;;17.10;6.43;;;12.90;99.90;;;;;;5072605;28;20671;-73
2021/05/27 06:10:54;;;;;;;11.30;6.80;;;13.00;99.90;;;;;;5072501;28;20206;-73
2021/05/27 06:13:21;;;;;;;18.20;5.57;;;13.00;99.90;;;;;;5072363;28;20210;-73
2021/05/27 06:15:47;;;;;;;16.77;5.87;;;13.00;99.90;;;;;;5072199;28;20237;-72
2021/05/27 06:18:15;;;;;;;15.50;6.20;;;13.00;99.90;;;;;;5056370;28;20215;-72
2021/05/27 06:20:42;;;;;;;15.30;6.32;;;13.30;99.90;;;;;;5052384;28;20203;-73
2021/05/27 06:23:09;;;;;;;15.93;6.70;;;13.40;99.90;;;;;;5055168;28;20209;-71
2021/05/27 06:25:37;;;;;;;11.37;6.00;;;13.40;99.90;;;;;;5059787;28;20599;-72
2021/05/27 06:28:05;;;;;;;13.13;5.97;;;13.50;99.90;;;;;;5051572;28;20245;-72
2021/05/27 06:30:31;;;;;;;14.70;7.35;;;13.50;99.90;;;;;;5069657;28;20205;-72
2021/05/27 06:33:00;;;;;;;28.33;6.85;;;13.50;99.90;;;;;;5067905;28;20233;-69
2021/05/27 06:35:27;;;;;;;14.27;5.90;;;13.50;99.90;;;;;;5063521;28;20261;-70
2021/05/27 06:37:54;;;;;;;22.10;8.45;;;13.70;99.90;;;;;;5067081;28;20210;-70
2021/05/27 06:40:23;;;;;;;17.45;6.13;;;13.80;99.90;;;;;;5064891;28;20202;-71
2021/05/27 06:42:50;;;;;;;17.17;6.53;;;13.90;99.90;;;;;;5050965;28;20289;-73
2021/05/27 06:45:19;;;;;;;24.35;8.60;;;14.20;99.90;;;;;;5062788;28;20237;-73
2021/05/27 06:47:45;;;;;;;17.98;6.75;;;14.60;99.90;;;;;;5066699;28;20585;-70
2021/05/27 06:50:12;;;;;;;18.58;6.55;;;14.80;99.90;;;;;;5059595;28;20207;-69
2021/05/27 06:52:38;;;;;;;9.80;6.10;;;14.80;99.90;;;;;;5051070;28;20203;-68
2021/05/27 06:55:07;;;;;;;25.02;7.47;;;14.90;99.90;;;;;;5050705;28;20223;-69
2021/05/27 06:57:34;;;;;;;17.25;6.65;;;14.90;99.90;;;;;;5064868;28;20681;-71
2021/05/27 07:00:00;;;;;;;19.73;7.30;;;15.00;99.90;;;;;;5071233;28;20576;-70
2021/05/27 07:02:28;;;;;;;11.00;6.22;;;15.00;99.90;;;;;;5065834;28;20225;-69
2021/05/27 07:04:55;;;;;;;17.02;5.68;;;15.10;99.90;;;;;;5062158;28;20309;-69
2021/05/27 07:07:21;;;;;;;13.73;5.80;;;15.30;99.90;;;;;;5061527;28;20211;-69
2021/05/27 07:09:48;;;;;;;14.82;6.78;;;15.30;99.90;;;;;;5064946;28;20202;-70
2021/05/27 07:12:15;;;;;;;19.70;6.28;;;15.40;99.90;;;;;;5070360;28;20199;-70
2021/05/27 07:14:42;;;;;;;15.93;5.78;;;15.40;99.90;;;;;;5069165;28;20225;-70
2021/05/27 07:17:08;;;;;;;18.33;7.00;;;15.60;99.90;;;;;;5070748;28;20677;-69
2021/05/27 07:19:36;;;;;;;12.57;5.60;;;15.70;99.90;;;;;;5067258;28;20575;-69
2021/05/27 07:22:02;;;;;;;11.38;5.18;;;15.80;99.90;;;;;;5050413;28;20248;-70
2021/05/27 07:24:29;;;;;;;16.05;7.63;;;16.10;99.90;;;;;;5006465;28;1256921;-69
2021/05/27 07:26:55;;;;;;;13.30;7.15;;;16.20;99.90;;;;;;5053232;28;20203;-69
2021/05/27 07:29:22;;;;;;;12.48;6.07;;;16.40;99.90;;;;;;5062760;28;20198;-69
2021/05/27 07:31:48;;;;;;;14.82;5.88;;;16.40;99.90;;;;;;5071133;28;20197;-70
2021/05/27 07:34:15;;;;;;;15.93;7.00;;;16.40;99.90;;;;;;5070882;28;20629;-69
2021/05/27 07:36:42;;;;;;;17.42;7.57;;;16.40;99.90;;;;;;5071178;28;20238;-69
2021/05/27 07:39:08;;;;;;;11.05;6.05;;;16.60;99.90;;;;;;5065241;28;20248;-71
2021/05/27 07:41:35;;;;;;;20.30;6.30;;;16.80;99.90;;;;;;5068804;28;20198;-71
2021/05/27 07:44:01;;;;;;;14.35;7.13;;;16.90;99.90;;;;;;5065929;28;20210;-69
2021/05/27 07:46:28;;;;;;;10.93;6.50;;;17.20;99.90;;;;;;5062416;28;20215;-69
2021/05/27 07:48:55;;;;;;;14.13;6.45;;;18.10;99.90;;;;;;5059117;28;20847;-71
2021/05/27 07:51:21;;;;;;;13.13;6.72;;;18.90;99.90;;;;;;5064200;28;20804;-73
2021/05/27 07:53:49;;;;;;;17.63;7.38;;;18.60;99.90;;;;;;5069756;28;20202;-73
2021/05/27 07:56:15;;;;;;;12.18;5.60;;;19.40;99.90;;;;;;5071411;28;20234;-73
2021/05/27 07:58:42;;;;;;;15.82;6.82;;;20.70;99.90;;;;;;5071172;28;20199;-74
2021/05/27 08:01:09;;;;;;;12.00;7.13;;;20.80;99.90;;;;;;5071247;28;20202;-73
2021/05/27 08:03:35;;;;;;;12.40;6.45;;;23.10;99.90;;;;;;5071279;28;20256;-73
2021/05/27 08:06:02;;;;;;;14.30;6.43;;;21.30;99.90;;;;;;5070937;28;20202;-71
2021/05/27 08:08:29;;;;;;;11.75;6.30;;;24.00;99.90;;;;;;5070969;28;20198;-71
2021/05/27 08:10:56;;;;;;;16.13;6.00;;;26.30;99.90;;;;;;5071173;28;20202;-71
2021/05/27 08:13:23;;;;;;;13.40;6.93;;;26.50;99.90;;;;;;5070995;28;20209;-71
2021/05/27 08:15:49;;;;;;;8.77;5.82;;;24.50;99.90;;;;;;5070673;28;20233;-71
2021/05/27 08:18:16;;;;;;;11.70;5.65;;;22.80;99.90;;;;;;5070739;28;20203;-71
2021/05/27 08:20:42;;;;;;;18.13;7.13;;;21.20;99.90;;;;;;5070891;28;20658;-71
2021/05/27 08:23:09;;;;;;;11.23;5.90;;;20.40;99.90;;;;;;5071200;28;20202;-73
2021/05/27 08:25:35;;;;;;;7.30;4.75;;;20.00;99.90;;;;;;5072316;28;20209;-72
2021/05/27 08:28:03;;;;;;;9.25;4.97;;;19.90;99.90;;;;;;5074327;28;20681;-74
2021/05/27 08:30:29;;;;;;;10.30;4.80;;;19.70;99.90;;;;;;5069470;28;20195;-72
2021/05/27 08:32:55;;;;;;;9.35;5.38;;;19.70;99.90;;;;;;5074425;28;20207;-73
2021/05/27 08:35:22;;;;;;;7.88;5.43;;;20.50;99.90;;;;;;5074202;28;20226;-73
2021/05/27 08:37:48;;;;;;;12.40;5.45;;;20.20;99.90;;;;;;5074228;28;20229;-73
2021/05/27 08:40:15;;;;;;;10.68;5.25;;;20.10;99.90;;;;;;5074125;28;20580;-74
2021/05/27 08:42:43;;;;;;;10.05;5.20;;;20.70;99.90;;;;;;5074602;28;20202;-73
2021/05/27 08:45:13;;;;;;;11.57;5.18;;;22.00;99.90;;;;;;5074381;28;20301;-71
2021/05/27 08:47:39;;;;;;;9.70;5.95;;;22.10;99.90;;;;;;5074410;28;20202;-70
2021/05/27 08:50:07;;;;;;;12.88;5.13;;;22.10;99.90;;;;;;5073828;28;20225;-72
2021/05/27 08:52:33;;;;;;;16.17;5.25;;;23.20;99.90;;;;;;5073900;28;20617;-70
2021/05/27 08:55:01;;;;;;;6.22;4.82;;;23.00;99.90;;;;;;5073930;28;20257;-70
2021/05/27 08:57:27;;;;;;;8.88;5.28;;;22.30;99.90;;;;;;5073835;28;20206;-69
2021/05/27 08:59:54;;;;;;;10.48;5.43;;;22.70;99.90;;;;;;5073888;28;20202;-70
2021/05/27 09:02:21;;;;;;;8.27;5.00;;;24.10;99.90;;;;;;5073904;28;20256;-70
2021/05/27 09:04:48;;;;;;;8.88;4.53;;;23.40;99.90;;;;;;5073648;28;20576;-70
2021/05/27 09:07:14;;;;;;;10.65;5.43;;;22.90;99.90;;;;;;5073824;28;20202;-71
2021/05/27 09:09:52;;;;;;;6.85;5.18;;;22.60;99.90;;;;;;5074101;28;20203;-71
2021/05/27 09:12:26;;;;;;;4.15;3.75;;;22.00;99.90;;;;;;5073624;28;20202;-71
2021/05/27 09:14:53;;;;;;;5.38;4.22;;;23.10;99.90;;;;;;5072791;28;20716;-70
2021/05/27 09:17:19;;;;;;;6.72;4.85;;;23.50;99.90;;;;;;5056628;28;20592;-72
2021/05/27 09:20:14;;;;;;;7.05;5.35;;;23.00;99.90;;;;;;5053295;28;20630;-70
2021/05/27 09:22:41;;;;;;;6.00;5.25;;;22.80;99.90;;;;;;5053531;28;20206;-71
2021/05/27 09:25:22;;;;;;;11.77;5.22;;;23.70;99.90;;;;;;5053166;28;20225;-71
2021/05/27 09:27:49;;;;;;;8.55;4.97;;;23.90;99.90;;;;;;5053346;28;20244;-70
2021/05/27 09:30:17;;;;;;;7.90;4.60;;;22.90;99.90;;;;;;5053408;28;20203;-72
2021/05/27 09:32:46;;;;;;;6.95;5.45;;;23.60;99.90;;;;;;5053360;28;20569;-71
2021/05/27 09:35:15;;;;;;;8.88;5.72;;;24.90;99.90;;;;;;5053389;28;20801;-71
2021/05/27 09:37:47;;;;;;;9.85;5.80;;;24.70;99.90;;;;;;5052352;28;20662;-71
2021/05/27 09:40:29;;;;;;;10.18;5.15;;;23.80;99.90;;;;;;5053226;28;20754;-72
2021/05/27 09:42:56;;;;;;;8.23;5.80;;;23.80;99.90;;;;;;5052752;28;20581;-70
2021/05/27 09:45:24;;;;;;;5.90;4.25;;;23.60;99.90;;;;;;5052952;28;20671;-70
2021/05/27 09:47:51;;;;;;;7.90;4.90;;;23.10;99.90;;;;;;5052954;28;20205;-70
2021/05/27 09:50:18;;;;;;;9.30;5.30;;;23.00;99.90;;;;;;5052755;28;20203;-72
2021/05/27 09:52:46;;;;;;;13.77;5.20;;;23.40;99.90;;;;;;5053015;28;20565;-72
2021/05/27 09:55:15;;;;;;;9.35;5.70;;;23.90;99.90;;;;;;5052891;28;20604;-72
2021/05/27 09:57:42;;;;;;;6.57;5.03;;;25.10;99.90;;;;;;5052987;28;20209;-71
2021/05/27 10:00:26;;;;;;;11.95;5.13;;;25.40;99.90;;;;;;5052782;28;20202;-73
2021/05/27 10:02:53;;;;;;;7.55;5.55;;;26.40;99.90;;;;;;5052576;28;20264;-72
2021/05/27 10:05:21;;;;;;;7.40;5.13;;;26.60;99.90;;;;;;5052485;28;20250;-71
2021/05/27 10:07:49;;;;;;;7.10;4.28;;;27.20;99.90;;;;;;5052653;28;20207;-73
2021/05/27 10:10:17;;;;;;;8.07;4.57;;;27.50;99.90;;;;;;5052688;28;20677;-72
2021/05/27 10:12:46;;;;;;;10.02;5.25;;;25.40;99.90;;;;;;5052778;28;20203;-73
2021/05/27 10:15:14;;;;;;;10.23;4.75;;;27.00;99.90;;;;;;5052599;28;20261;-71
2021/05/27 10:17:42;;;;;;;6.85;5.18;;;27.20;99.90;;;;;;5052276;28;20202;-72
2021/05/27 10:20:10;;;;;;;8.02;5.05;;;27.70;99.90;;;;;;5052541;28;20207;-71
2021/05/27 10:22:38;;;;;;;6.88;5.63;;;30.10;99.90;;;;;;5052237;28;20682;-72
2021/05/27 10:25:07;;;;;;;8.93;6.68;;;33.10;99.90;;;;;;5052065;28;20214;-72
2021/05/27 10:27:33;;;;;;;5.93;5.00;;;30.90;99.90;;;;;;5052175;28;20556;-70
2021/05/27 10:30:01;;;;;;;10.70;5.15;;;31.80;99.90;;;;;;5052096;28;20666;-72
2021/05/27 10:32:29;;;;;;;6.10;4.65;;;30.50;99.90;;;;;;5052270;28;20206;-71
2021/05/27 10:34:55;;;;;;;9.40;4.90;;;26.20;99.90;;;;;;5052189;28;20280;-70
2021/05/27 10:37:48;;;;;;;7.15;4.80;;;24.40;99.90;;;;;;5052073;28;20198;-71
2021/05/27 10:40:37;;;;;;;8.27;5.22;;;23.60;99.90;;;;;;5047591;28;20675;-72
2021/05/27 10:43:13;;;;;;;9.60;6.30;;;22.70;99.90;;;;;;5052073;28;20289;-73
2021/05/27 10:46:10;;;;;;;6.88;5.13;;;22.70;99.90;;;;;;5051744;28;20214;-71
2021/05/27 10:48:43;;;;;;;10.32;4.82;;;22.20;99.90;;;;;;5054881;28;20288;-70
2021/05/27 10:51:16;;;;;;;11.52;5.75;;;22.50;99.90;;;;;;5051977;28;20562;-70
2021/05/27 10:53:52;;;;;;;6.60;4.78;;;23.00;99.90;;;;;;5051769;28;20232;-71
2021/05/27 10:56:21;;;;;;;7.63;4.53;;;23.20;99.90;;;;;;5052036;28;20233;-72
2021/05/27 10:59:15;;;;;;;6.97;4.30;;;23.40;99.90;;;;;;5051922;28;20203;-72
2021/05/27 11:02:02;;;;;;;8.52;4.90;;;23.20;99.90;;;;;;5051744;28;20207;-71
2021/05/27 11:04:42;;;;;;;6.10;4.13;;;23.00;99.90;;;;;;5051700;28;20206;-72
2021/05/27 11:07:29;;;;;;;9.68;5.47;;;22.30;99.90;;;;;;5051499;28;20246;-71
2021/05/27 11:09:58;;;;;;;7.90;4.72;;;22.80;99.90;;;;;;5048215;28;20202;-71
2021/05/27 11:12:30;;;;;;;5.57;5.00;;;23.00;99.90;;;;;;5051699;28;20199;-71
2021/05/27 11:15:14;;;;;;;6.75;4.93;;;23.20;99.90;;;;;;5051472;28;20206;-71
2021/05/27 11:17:41;;;;;;;6.13;4.68;;;23.30;99.90;;;;;;5051368;28;20209;-71
2021/05/27 11:20:12;;;;;;;8.65;4.38;;;23.40;99.90;;;;;;5051352;28;20215;-71
2021/05/27 11:22:43;;;;;;;10.77;5.22;;;23.20;99.90;;;;;;5051268;28;20202;-72
2021/05/27 11:25:34;;;;;;;8.15;4.57;;;23.50;99.90;;;;;;5051054;28;20214;-72
2021/05/27 11:28:23;;;;;;;8.07;4.30;;;23.20;99.90;;;;;;5051181;28;20206;-72
2021/05/27 11:30:53;;;;;;;7.60;4.57;;;23.30;99.90;;;;;;5051239;28;20220;-70
2021/05/27 11:33:41;;;;;;;8.85;4.80;;;23.10;99.90;;;;;;5051731;28;20205;-71
2021/05/27 11:36:25;;;;;;;8.50;5.45;;;23.30;99.90;;;;;;5047911;28;20230;-71
2021/05/27 11:38:53;;;;;;;9.60;4.43;;;23.50;99.90;;;;;;5051128;28;20209;-71
2021/05/27 11:41:21;;;;;;;5.53;4.22;;;23.30;99.90;;;;;;5051729;28;20587;-74
2021/05/27 11:43:51;;;;;;;7.47;4.75;;;23.50;99.90;;;;;;5051696;28;20233;-71
2021/05/27 11:46:19;;;;;;;10.65;5.22;;;23.50;99.90;;;;;;5051333;28;20221;-72
2021/05/27 11:48:57;;;;;;;5.43;4.18;;;23.10;99.90;;;;;;5051175;28;20577;-71
2021/05/27 11:51:30;;;;;;;8.80;5.07;;;23.30;99.90;;;;;;5051166;28;20233;-72
2021/05/27 11:54:00;;;;;;;12.07;4.68;;;23.60;99.90;;;;;;5050897;28;20687;-71
2021/05/27 11:56:38;;;;;;;9.23;4.10;;;23.50;99.90;;;;;;5050988;28;20264;-71
2021/05/27 11:59:07;;;;;;;5.38;4.22;;;23.80;99.90;;;;;;5051417;28;20203;-72
2021/05/27 12:01:33;;;;;;;10.15;4.15;;;24.10;99.90;;;;;;5054094;28;20666;-72
2021/05/27 12:04:01;;;;;;;5.03;4.07;;;23.50;99.90;;;;;;5054789;28;20207;-71
2021/05/27 12:06:28;;;;;;;6.68;3.97;;;23.70;99.90;;;;;;5054637;28;20619;-72
2021/05/27 12:08:55;;;;;;;9.00;3.83;;;23.80;99.90;;;;;;5054957;28;20202;-73
2021/05/27 12:11:32;;;;;;;4.53;3.47;;;23.90;99.90;;;;;;5055131;28;20260;-72
2021/05/27 12:14:00;;;;;;;8.45;4.70;;;23.50;99.90;;;;;;5054623;28;20203;-72
2021/05/27 12:16:31;;;;;;;5.00;3.30;;;23.70;99.90;;;;;;5054629;28;20455;-70
2021/05/27 12:19:02;;;;;;;6.88;3.83;;;23.80;99.90;;;;;;5054723;28;20202;-72
2021/05/27 12:21:29;;;;;;;5.07;3.58;;;24.10;99.90;;;;;;5054486;28;20701;-72
2021/05/27 12:23:55;;;;;;;6.80;3.95;;;23.80;99.90;;;;;;5054392;28;20210;-72
2021/05/27 12:26:22;;;;;;;5.82;3.63;;;23.80;99.90;;;;;;5054736;28;20207;-73
2021/05/27 12:28:50;;;;;;;8.25;3.97;;;23.70;99.90;;;;;;5054271;28;20202;-72
2021/05/27 12:31:16;;;;;;;6.43;3.67;;;23.70;99.90;;;;;;5054552;28;20210;-72
2021/05/27 12:33:43;;;;;;;7.53;4.30;;;23.80;99.90;;;;;;5054229;28;20675;-72
2021/05/27 12:36:11;;;;;;;9.65;4.43;;;23.80;99.90;;;;;;5054401;28;20235;-72
2021/05/27 12:38:45;;;;;;;5.32;3.25;;;24.00;99.90;;;;;;5054332;28;20207;-71
2021/05/27 12:41:12;;;;;;;5.15;3.83;;;24.00;99.90;;;;;;5054015;28;20293;-72
2021/05/27 12:43:42;;;;;;;6.20;2.88;;;24.00;99.90;;;;;;5054307;28;20211;-72
2021/05/27 12:46:11;;;;;;;6.60;3.47;;;24.20;99.90;;;;;;5054280;28;20199;-72
2021/05/27 12:48:49;;;;;;;7.05;3.53;;;24.10;99.90;;;;;;5054988;28;20197;-72
2021/05/27 12:51:17;;;;;;;6.22;3.85;;;24.20;99.90;;;;;;5073636;28;20689;-72
2021/05/27 12:53:50;;;;;;;6.70;3.88;;;23.90;99.90;;;;;;5073789;28;20252;-72